createdAt,value
2018-04-13T00:03:14.942Z,14.97
2018-04-13T00:07:17.642Z,11.57
2018-04-13T00:11:20.318Z,11.33
2018-04-13T00:15:23.757Z,11.23
2018-04-13T00:19:26.450Z,11.30
2018-04-13T00:23:29.129Z,12.50
2018-04-13T00:27:31.801Z,10.93
2018-04-13T00:31:34.474Z,12.13
2018-04-13T00:35:37.907Z,12.87
2018-04-13T00:39:40.568Z,11.43
2018-04-13T00:43:44.015Z,11.73
2018-04-13T00:47:46.685Z,10.20
2018-04-13T00:51:49.350Z,10.07
2018-04-13T00:55:52.782Z,10.63
2018-04-13T00:59:55.444Z,9.87
2018-04-13T01:03:58.897Z,10.10
2018-04-13T01:08:01.567Z,11.33
2018-04-13T01:12:04.254Z,11.23
2018-04-13T01:16:06.974Z,11.10
2018-04-13T01:20:09.651Z,10.77
2018-04-13T01:24:12.333Z,11.30
2018-04-13T01:28:15.012Z,10.50
2018-04-13T01:32:17.685Z,12.53
2018-04-13T01:36:21.070Z,11.73
2018-04-13T01:40:23.817Z,13.87
2018-04-13T01:44:26.497Z,13.57
2018-04-13T01:48:29.173Z,15.90
2018-04-13T01:52:31.849Z,14.90
2018-04-13T01:56:35.271Z,15.53
2018-04-13T02:00:37.938Z,14.77
2018-04-13T02:04:41.387Z,16.07
2018-04-13T02:08:44.085Z,15.47
2018-04-13T02:12:46.749Z,15.20
2018-04-13T02:16:49.435Z,14.10
2018-04-13T02:20:52.100Z,14.17
2018-04-13T02:24:54.760Z,14.23
2018-04-13T02:28:57.498Z,13.47
2018-04-13T02:33:00.208Z,14.80
2018-04-13T02:37:02.909Z,12.87
2018-04-13T02:41:05.644Z,14.70
2018-04-13T02:45:09.109Z,13.87
2018-04-13T02:49:11.785Z,13.77
2018-04-13T02:53:14.445Z,13.03
2018-04-13T02:57:17.166Z,14.27
2018-04-13T03:01:19.848Z,13.83
2018-04-13T03:05:22.584Z,12.57
2018-04-13T03:09:25.256Z,12.30
2018-04-13T03:13:27.924Z,14.83
2018-04-13T03:17:30.592Z,16.00
2018-04-13T03:21:33.276Z,16.83
2018-04-13T03:25:35.950Z,16.97
2018-04-13T03:29:39.457Z,17.27
2018-04-13T03:33:42.165Z,16.90
2018-04-13T03:37:44.851Z,17.37
2018-04-13T03:41:47.567Z,18.03
2018-04-13T03:45:50.241Z,17.90
2018-04-13T03:49:52.933Z,16.47
2018-04-13T03:53:55.693Z,16.20
2018-04-13T03:57:59.144Z,15.93
2018-04-13T04:02:01.904Z,15.77
2018-04-13T04:06:04.656Z,16.23
2018-04-13T04:10:07.319Z,16.53
2018-04-13T04:14:09.992Z,15.83
2018-04-13T04:18:12.672Z,16.13
2018-04-13T04:22:27.168Z,16.03
2018-04-13T04:26:42.494Z,16.20
2018-04-13T04:30:46.013Z,15.67
2018-04-13T04:34:49.451Z,15.67
2018-04-13T04:38:52.136Z,13.20
2018-04-13T04:42:54.805Z,16.87
2018-04-13T04:46:57.482Z,14.77
2018-04-13T04:51:00.924Z,15.33
2018-04-13T04:55:03.635Z,14.27
2018-04-13T04:59:06.298Z,14.03
2018-04-13T05:03:09.748Z,13.43
2018-04-13T05:07:12.421Z,13.90
2018-04-13T05:11:15.112Z,10.97
2018-04-13T05:15:17.780Z,9.70
2018-04-13T05:19:20.450Z,9.93
2018-04-13T05:23:23.145Z,10.77
2018-04-13T05:27:25.823Z,10.30
2018-04-13T05:31:28.493Z,9.90
2018-04-13T05:35:31.170Z,10.77
2018-04-13T05:39:33.859Z,10.50
2018-04-13T05:43:37.313Z,10.03
2018-04-13T05:47:39.949Z,10.50
2018-04-13T05:51:42.594Z,10.67
2018-04-13T05:55:45.247Z,10.27
2018-04-13T05:59:48.656Z,10.33
2018-04-13T06:03:52.028Z,10.40
2018-04-13T06:07:55.472Z,9.67
2018-04-13T06:11:58.900Z,10.20
2018-04-13T06:16:01.565Z,11.33
2018-04-13T06:20:04.975Z,10.40
2018-04-13T06:24:08.351Z,10.83
2018-04-13T06:28:11.084Z,11.23
2018-04-13T06:32:13.733Z,11.83
2018-04-13T06:36:16.451Z,11.87
2018-04-13T06:40:19.866Z,12.67
2018-04-13T06:44:22.475Z,12.33
2018-04-13T06:48:25.177Z,13.10
2018-04-13T06:52:27.820Z,14.33
2018-04-13T06:56:30.501Z,13.20
2018-04-13T07:00:33.927Z,13.93
2018-04-13T07:04:37.368Z,14.80
2018-04-13T07:08:40.025Z,15.60
2018-04-13T07:12:42.671Z,15.07
2018-04-13T07:16:45.321Z,16.37
2018-04-13T07:20:48.020Z,15.57
2018-04-13T07:24:50.699Z,16.90
2018-04-13T07:28:53.356Z,18.13
2018-04-13T07:32:56.783Z,19.13
2018-04-13T07:36:59.865Z,19.23
2018-04-13T07:41:02.135Z,18.03
2018-04-13T07:45:05.639Z,19.03
2018-04-13T07:49:08.561Z,17.73
2018-04-13T07:53:10.971Z,18.80
2018-04-13T07:57:13.621Z,20.33
2018-04-13T08:01:16.994Z,19.83
2018-04-13T08:05:19.778Z,19.60
2018-04-13T08:09:22.326Z,19.33
2018-04-13T08:13:24.976Z,20.07
2018-04-13T08:17:27.690Z,21.03
2018-04-13T08:21:30.292Z,19.50
2018-04-13T08:25:32.937Z,20.83
2018-04-13T08:29:35.652Z,20.27
2018-04-13T08:33:38.307Z,20.77
2018-04-13T08:37:40.960Z,21.43
2018-04-13T08:41:43.574Z,21.83
2018-04-13T08:45:46.228Z,22.10
2018-04-13T08:49:48.930Z,22.87
2018-04-13T08:53:51.667Z,22.80
2018-04-13T08:57:55.097Z,22.90
2018-04-13T09:01:57.756Z,22.83
2018-04-13T09:06:00.403Z,22.00
2018-04-13T09:10:03.091Z,22.37
2018-04-13T09:14:05.745Z,23.20
2018-04-13T09:18:09.125Z,22.47
2018-04-13T09:22:12.552Z,24.43
2018-04-13T09:26:15.241Z,26.57
2018-04-13T09:30:18.669Z,29.13
2018-04-13T09:34:21.356Z,30.07
2018-04-13T09:38:23.971Z,30.03
2018-04-13T09:42:26.630Z,31.27
2018-04-13T09:46:29.275Z,31.67
2018-04-13T09:50:31.938Z,30.43
2018-04-13T09:54:34.597Z,31.40
2018-04-13T09:58:37.211Z,31.40
2018-04-13T10:02:39.871Z,32.77
2018-04-13T10:06:42.557Z,31.73
2018-04-13T10:10:45.213Z,33.30
2018-04-13T10:14:47.820Z,34.77
2018-04-13T10:18:51.233Z,36.10
2018-04-13T10:22:53.884Z,35.93
2018-04-13T10:26:56.566Z,35.93
2018-04-13T10:30:59.211Z,37.13
2018-04-13T10:35:01.868Z,38.20
2018-04-13T10:39:06.179Z,38.73
2018-04-13T10:43:08.816Z,38.83
2018-04-13T10:47:11.457Z,39.00
2018-04-13T10:51:14.110Z,38.10
2018-04-13T10:55:16.722Z,39.90
2018-04-13T10:59:20.176Z,39.73
2018-04-13T11:03:22.875Z,40.10
2018-04-13T11:07:25.520Z,41.37
2018-04-13T11:11:28.175Z,40.57
2018-04-13T11:15:30.781Z,40.40
2018-04-13T11:19:33.444Z,44.20
2018-04-13T11:23:36.098Z,43.70
2018-04-13T11:27:39.520Z,40.20
2018-04-13T11:31:42.140Z,40.27
2018-04-13T11:35:44.809Z,40.33
2018-04-13T11:39:47.526Z,38.77
2018-04-13T11:43:50.177Z,41.13
2018-04-13T11:47:52.830Z,42.00
2018-04-13T11:51:55.451Z,40.37
2018-04-13T11:55:58.113Z,39.70
2018-04-13T12:00:00.788Z,42.07
2018-04-13T12:04:03.437Z,41.73
2018-04-13T12:08:06.080Z,36.47
2018-04-13T12:12:09.524Z,37.40
2018-04-13T12:16:12.185Z,34.90
2018-04-13T12:20:15.614Z,37.93
2018-04-13T12:24:18.260Z,37.23
2018-04-13T12:28:20.913Z,39.73
2018-04-13T12:32:23.528Z,38.27
2018-04-13T12:36:26.229Z,37.60
2018-04-13T12:40:28.880Z,35.77
2018-04-13T12:44:31.570Z,36.97
2018-04-13T12:48:34.176Z,34.57
2018-04-13T12:52:37.782Z,38.07
2018-04-13T12:56:41.249Z,33.37
2018-04-13T13:00:44.652Z,33.17
2018-04-13T13:04:47.309Z,34.40
2018-04-13T13:08:49.955Z,70.03
2018-04-13T13:12:52.618Z,29.73
2018-04-13T13:16:55.265Z,30.20
2018-04-13T13:20:57.951Z,27.20
2018-04-13T13:25:00.622Z,31.00
2018-04-13T13:29:03.237Z,33.50
2018-04-13T13:33:05.896Z,34.03
2018-04-13T13:37:08.551Z,29.63
2018-04-13T13:41:11.204Z,28.60
2018-04-13T13:45:13.820Z,26.97
2018-04-13T13:49:16.528Z,28.43
2018-04-13T13:53:19.176Z,28.83
2018-04-13T13:57:21.868Z,29.40
2018-04-13T14:01:25.284Z,29.13
2018-04-13T14:05:28.667Z,31.30
2018-04-13T14:09:31.384Z,30.70
2018-04-13T14:13:34.040Z,28.80
2018-04-13T14:17:36.695Z,32.40
2018-04-13T14:21:39.341Z,29.00
2018-04-13T14:25:42.707Z,29.90
2018-04-13T14:29:47.488Z,27.67
2018-04-13T14:33:50.900Z,26.43
2018-04-13T14:37:54.001Z,26.23
2018-04-13T14:41:56.717Z,24.33
2018-04-13T14:45:59.329Z,25.87
2018-04-13T14:50:01.992Z,27.00
2018-04-13T14:54:04.660Z,26.13
2018-04-13T14:58:07.312Z,27.87
2018-04-13T15:02:09.925Z,30.50
2018-04-13T15:06:13.332Z,35.00
2018-04-13T15:10:16.769Z,30.90
2018-04-13T15:14:19.427Z,29.87
2018-04-13T15:18:22.861Z,28.77
2018-04-13T15:22:25.468Z,27.07
2018-04-13T15:26:28.147Z,24.13
2018-04-13T15:30:30.795Z,24.40
2018-04-13T15:34:34.215Z,23.20
2018-04-13T15:38:36.867Z,21.73
2018-04-13T15:42:39.493Z,24.00
2018-04-13T15:46:42.201Z,22.60
2018-04-13T15:50:44.845Z,23.33
2018-04-13T15:54:47.593Z,27.43
2018-04-13T15:58:50.255Z,26.50
2018-04-13T16:02:52.910Z,27.13
2018-04-13T16:06:55.565Z,24.03
2018-04-13T16:10:58.218Z,19.07
2018-04-13T16:15:00.873Z,19.67
2018-04-13T16:19:03.488Z,19.20
2018-04-13T16:23:06.131Z,17.93
2018-04-13T16:27:08.840Z,14.10
2018-04-13T16:31:11.485Z,13.50
2018-04-13T16:35:14.188Z,10.80
2018-04-13T16:39:16.788Z,12.57
2018-04-13T16:43:19.440Z,10.73
2018-04-13T16:47:22.086Z,10.57
2018-04-13T16:51:24.728Z,9.53
2018-04-13T16:55:27.427Z,9.87
2018-04-13T16:59:30.031Z,12.00
2018-04-13T17:03:32.675Z,11.97
2018-04-13T17:07:35.315Z,11.43
2018-04-13T17:11:38.672Z,11.77
2018-04-13T17:15:41.278Z,10.93
2018-04-13T17:19:43.915Z,11.53
2018-04-13T17:23:47.389Z,11.03
2018-04-13T17:27:50.032Z,10.63
2018-04-13T17:31:52.681Z,11.10
2018-04-13T17:35:55.302Z,10.70
2018-04-13T17:39:57.964Z,12.00
2018-04-13T17:44:01.319Z,12.37
2018-04-13T17:48:03.992Z,13.03
2018-04-13T17:52:06.687Z,11.70
2018-04-13T17:56:09.389Z,11.17
2018-04-13T18:00:12.062Z,12.17
2018-04-13T18:04:14.725Z,13.40
2018-04-13T18:08:18.184Z,13.13
2018-04-13T18:12:20.857Z,14.10
2018-04-13T18:16:23.541Z,14.90
2018-04-13T18:20:26.281Z,15.20
2018-04-13T18:24:29.016Z,14.57
2018-04-13T18:28:31.693Z,14.50
2018-04-13T18:32:34.378Z,14.83
2018-04-13T18:36:37.820Z,13.40
2018-04-13T18:40:40.500Z,11.47
2018-04-13T18:44:43.245Z,10.33
2018-04-13T18:48:46.698Z,10.50
2018-04-13T18:52:49.377Z,11.60
2018-04-13T18:56:52.064Z,10.20
2018-04-13T19:00:54.771Z,10.40
2018-04-13T19:04:57.459Z,11.03
2018-04-13T19:09:00.149Z,11.83
2018-04-13T19:13:02.829Z,11.37
2018-04-13T19:17:05.504Z,10.00
2018-04-13T19:21:08.233Z,12.73
2018-04-13T19:25:11.958Z,13.93
2018-04-13T19:29:14.688Z,12.50
2018-04-13T19:33:18.189Z,14.87
2018-04-13T19:37:21.656Z,17.63
2018-04-13T19:41:24.353Z,17.47
2018-04-13T19:45:27.120Z,18.80
2018-04-13T19:49:29.784Z,18.97
2018-04-13T19:53:32.457Z,21.40
2018-04-13T19:57:35.998Z,24.50
2018-04-13T20:01:39.452Z,24.87
2018-04-13T20:05:42.149Z,27.00
2018-04-13T20:09:44.865Z,29.60
2018-04-13T20:13:47.525Z,28.77
2018-04-13T20:17:50.265Z,31.67
2018-04-13T20:21:53.033Z,38.23
2018-04-13T20:25:55.731Z,38.03
2018-04-13T20:29:58.428Z,40.73
2018-04-13T20:34:01.121Z,44.17
2018-04-13T20:38:03.828Z,43.13
2018-04-13T20:42:06.538Z,45.37
2018-04-13T20:46:09.282Z,41.90
2018-04-13T20:50:11.997Z,50.83
2018-04-13T20:54:14.731Z,54.23
2018-04-13T20:58:18.258Z,48.63
2018-04-13T21:02:21.016Z,51.10
2018-04-13T21:06:23.793Z,49.50
2018-04-13T21:10:26.510Z,55.20
2018-04-13T21:14:29.250Z,53.40
2018-04-13T21:18:32.016Z,58.53
2018-04-13T21:22:34.739Z,56.63
2018-04-13T21:26:37.433Z,57.07
2018-04-13T21:30:40.196Z,68.57
2018-04-13T21:34:42.922Z,59.77
2018-04-13T21:38:45.592Z,67.17
2018-04-13T21:42:48.309Z,70.77
2018-04-13T21:46:51.073Z,69.27
2018-04-13T21:50:53.764Z,69.03
2018-04-13T21:54:56.480Z,61.10
2018-04-13T21:58:59.225Z,60.87
2018-04-13T22:03:01.909Z,69.03
2018-04-13T22:07:04.710Z,69.27
2018-04-13T22:11:07.379Z,40.03
2018-04-13T22:15:10.818Z,65.97
2018-04-13T22:19:13.505Z,64.90
2018-04-13T22:23:16.185Z,55.73
2018-04-13T22:27:18.849Z,62.83
2018-04-13T22:31:22.317Z,63.23
2018-04-13T22:35:25.121Z,52.23
2018-04-13T22:39:27.852Z,47.53
2018-04-13T22:43:30.524Z,44.57
2018-04-13T22:47:33.979Z,44.13
2018-04-13T22:51:36.700Z,44.13
2018-04-13T22:55:39.385Z,41.87
2018-04-13T22:59:43.585Z,43.17
2018-04-13T23:03:46.232Z,40.87
2018-04-13T23:07:49.697Z,40.93
2018-04-13T23:11:52.512Z,39.10
2018-04-13T23:15:55.261Z,38.20
2018-04-13T23:19:58.016Z,38.73
2018-04-13T23:24:00.724Z,38.57
2018-04-13T23:28:03.418Z,38.60
2018-04-13T23:32:06.107Z,35.40
2018-04-13T23:36:08.803Z,39.87
2018-04-13T23:40:12.191Z,38.10
2018-04-13T23:44:14.954Z,39.03
2018-04-13T23:48:17.779Z,39.73
2018-04-13T23:52:21.276Z,39.73
2018-04-13T23:56:23.998Z,38.47
